Time;durP1;ratioP1;P1;durP2;ratioP2;P2;SDS_P1;SDS_P2;PMS_P1;PMS_P2;Temp;Humidity;BMP_temperature;BMP_pressure;BME280_temperature;BME280_humidity;BME280_pressure;Samples;Min_cycle;Max_cycle;Signal;HPM_P1;HPM_P2
2022/11/02 00:01:52;;;;;;;5.40;1.90;;;14.70;1.00;;;;;;5017177;28;20186;-84
2022/11/02 00:04:17;;;;;;;4.70;1.63;;;14.70;1.00;;;;;;5015822;28;20196;-84
2022/11/02 00:06:43;;;;;;;7.47;2.00;;;14.70;1.00;;;;;;5017137;28;20224;-81
2022/11/02 00:09:09;;;;;;;6.20;1.67;;;14.70;1.00;;;;;;5014466;28;20172;-84
2022/11/02 00:11:36;;;;;;;4.67;1.43;;;14.80;1.00;;;;;;5016312;28;20180;-83
2022/11/02 00:14:02;;;;;;;6.83;1.90;;;14.80;1.00;;;;;;5014749;28;20177;-84
2022/11/02 00:16:29;;;;;;;6.80;1.43;;;14.80;1.00;;;;;;5014523;28;20398;-83
2022/11/02 00:18:58;;;;;;;6.07;1.87;;;14.60;1.00;;;;;;5014704;28;20177;-84
2022/11/02 00:21:26;;;;;;;7.67;2.10;;;14.50;1.00;;;;;;5014754;28;20220;-84
2022/11/02 00:23:53;;;;;;;6.83;1.63;;;14.50;1.00;;;;;;5014806;28;20242;-83
2022/11/02 00:26:19;;;;;;;9.47;2.00;;;14.50;1.00;;;;;;5016679;28;20182;-83
2022/11/02 00:28:45;;;;;;;8.90;2.13;;;14.50;1.00;;;;;;5014928;28;20184;-83
2022/11/02 00:31:11;;;;;;;7.17;1.80;;;14.40;1.00;;;;;;5014893;28;20237;-82
2022/11/02 00:33:37;;;;;;;7.83;2.10;;;14.50;1.00;;;;;;5022766;28;20196;-86
2022/11/02 00:36:02;;;;;;;8.30;2.37;;;14.40;1.00;;;;;;5017464;28;20232;-82
2022/11/02 00:38:31;;;;;;;9.60;2.10;;;14.40;1.00;;;;;;5016762;28;20231;-84
2022/11/02 00:40:57;;;;;;;9.13;2.07;;;14.50;1.00;;;;;;5017788;28;20181;-84
2022/11/02 00:43:23;;;;;;;8.03;2.10;;;14.40;1.60;;;;;;5019246;28;20195;-82
2022/11/02 00:45:48;;;;;;;9.93;2.20;;;14.40;3.90;;;;;;5016053;28;20185;-84
2022/11/02 00:48:16;;;;;;;7.87;1.97;;;14.30;2.60;;;;;;5015585;28;20169;-85
2022/11/02 00:50:41;;;;;;;9.30;2.27;;;14.30;1.00;;;;;;5014758;28;20175;-83
2022/11/02 00:53:07;;;;;;;11.50;2.70;;;14.30;1.00;;;;;;5017687;28;20189;-82
2022/11/02 00:55:32;;;;;;;8.40;1.60;;;14.30;1.00;;;;;;5021655;28;20233;-82
2022/11/02 00:57:58;;;;;;;9.70;2.60;;;14.30;1.00;;;;;;5015336;28;20196;-83
2022/11/02 01:00:24;;;;;;;8.63;1.83;;;14.30;1.00;;;;;;5015065;28;20181;-83
2022/11/02 01:02:50;;;;;;;7.97;1.83;;;14.20;1.00;;;;;;5015212;28;20323;-82
2022/11/02 01:05:15;;;;;;;7.47;1.83;;;14.30;1.00;;;;;;5015540;28;20190;-83
2022/11/02 01:07:43;;;;;;;6.20;1.87;;;14.30;1.00;;;;;;5018174;28;20166;-84
2022/11/02 01:10:10;;;;;;;8.80;2.40;;;14.20;1.00;;;;;;5017907;28;20179;-83
2022/11/02 01:12:39;;;;;;;7.90;2.60;;;14.20;1.00;;;;;;5009355;28;20225;-83
2022/11/02 01:15:06;;;;;;;7.90;2.13;;;14.10;1.00;;;;;;5032826;28;20242;-82
2022/11/02 01:17:32;;;;;;;7.00;1.90;;;14.10;1.00;;;;;;5034899;28;20180;-81
2022/11/02 01:19:58;;;;;;;9.97;2.83;;;14.10;1.00;;;;;;5036310;28;20164;-83
2022/11/02 01:22:24;;;;;;;11.67;2.10;;;14.10;1.00;;;;;;5020111;28;20227;-83
2022/11/02 01:24:49;;;;;;;10.03;2.40;;;14.20;1.00;;;;;;5020170;28;20191;-82
2022/11/02 01:27:18;;;;;;;6.67;1.80;;;14.10;1.00;;;;;;5014870;28;20176;-83
2022/11/02 01:29:44;;;;;;;8.80;2.20;;;14.10;1.00;;;;;;5015471;28;20175;-84
2022/11/02 01:32:11;;;;;;;8.53;2.20;;;14.20;1.00;;;;;;5014102;28;20561;-82
2022/11/02 01:34:37;;;;;;;6.17;1.73;;;14.20;1.00;;;;;;5015058;28;20183;-84
2022/11/02 01:37:03;;;;;;;6.63;2.33;;;14.10;1.00;;;;;;5013569;28;20192;-85
2022/11/02 01:39:28;;;;;;;6.77;1.97;;;14.20;1.00;;;;;;5014404;28;20199;-82
2022/11/02 01:41:54;;;;;;;9.97;2.77;;;14.00;1.00;;;;;;5016085;28;20185;-82
2022/11/02 01:44:26;;;;;;;7.87;2.33;;;14.00;1.00;;;;;;5013282;28;20205;-82
2022/11/02 01:46:54;;;;;;;7.57;1.93;;;14.00;1.00;;;;;;5016575;28;20235;-87
2022/11/02 01:49:22;;;;;;;9.87;2.30;;;14.10;1.00;;;;;;5021495;28;20179;-85
2022/11/02 01:51:58;;;;;;;7.60;2.17;;;14.10;1.00;;;;;;5031381;28;20174;-84
2022/11/02 01:54:30;;;;;;;9.23;2.20;;;14.10;1.00;;;;;;5036163;28;20161;-84
2022/11/02 01:57:02;;;;;;;8.73;2.30;;;14.10;1.00;;;;;;5037343;28;20208;-87
2022/11/02 01:59:51;;;;;;;8.47;2.30;;;14.10;1.00;;;;;;5033739;28;20169;-86
2022/11/02 02:02:20;;;;;;;8.07;2.27;;;14.00;1.00;;;;;;5035640;28;20187;-84
2022/11/02 02:04:51;;;;;;;7.13;2.07;;;14.20;1.00;;;;;;5037062;28;20170;-81
2022/11/02 02:07:25;;;;;;;8.23;2.03;;;14.20;1.00;;;;;;5035891;28;20173;-83
2022/11/02 02:10:01;;;;;;;8.87;1.97;;;14.10;1.00;;;;;;5035431;28;20165;-81
2022/11/02 02:12:38;;;;;;;8.70;2.43;;;14.00;1.00;;;;;;5035447;28;20164;-85
2022/11/02 02:15:04;;;;;;;11.03;2.50;;;14.00;1.00;;;;;;5035895;28;20256;-83
2022/11/02 02:17:57;;;;;;;8.03;2.43;;;14.10;1.00;;;;;;5040359;28;20162;-85
2022/11/02 02:20:42;;;;;;;8.83;2.30;;;14.00;1.00;;;;;;5039463;28;20170;-84
2022/11/02 02:23:54;;;;;;;10.93;2.53;;;14.00;1.00;;;;;;5036567;28;20193;-83
2022/11/02 02:26:44;;;;;;;8.17;2.73;;;14.00;1.00;;;;;;5036714;28;20169;-82
2022/11/02 02:29:19;;;;;;;11.17;2.63;;;14.00;1.00;;;;;;5039778;28;20161;-86
2022/11/02 02:31:50;;;;;;;11.00;2.70;;;13.90;1.00;;;;;;5040062;28;20174;-84
2022/11/02 02:34:29;;;;;;;8.20;2.50;;;13.80;1.00;;;;;;5040403;28;20191;-83
2022/11/02 02:37:13;;;;;;;7.17;2.03;;;14.10;1.00;;;;;;5039767;28;20210;-84
2022/11/02 02:39:45;;;;;;;11.93;2.80;;;13.80;1.00;;;;;;5039460;28;20156;-84
2022/11/02 02:42:17;;;;;;;11.20;2.73;;;13.80;1.00;;;;;;5039086;28;20176;-87
2022/11/02 02:45:11;;;;;;;14.40;2.40;;;13.80;1.00;;;;;;5039652;28;20178;-89
2022/11/02 02:47:53;;;;;;;9.67;2.20;;;13.80;1.00;;;;;;5039738;28;20214;-86
2022/11/02 02:50:24;;;;;;;12.10;2.13;;;13.80;1.00;;;;;;5038290;28;20207;-85
2022/11/02 02:52:53;;;;;;;9.73;2.57;;;13.70;1.00;;;;;;5031184;28;20176;-88
2022/11/02 02:55:28;;;;;;;9.27;2.30;;;13.70;1.00;;;;;;5027039;28;20253;-84
2022/11/02 02:57:57;;;;;;;7.53;2.37;;;13.60;1.00;;;;;;5024832;28;20200;-84
2022/11/02 03:00:25;;;;;;;8.87;2.80;;;13.70;1.00;;;;;;5024316;28;20179;-87
2022/11/02 03:03:02;;;;;;;7.53;2.20;;;13.80;1.00;;;;;;5027494;28;20182;-87
2022/11/02 03:05:36;;;;;;;9.80;2.60;;;13.80;1.00;;;;;;5025371;28;20175;-83
2022/11/02 03:08:12;;;;;;;10.90;2.63;;;13.70;1.00;;;;;;5028061;28;20172;-82
2022/11/02 03:10:55;;;;;;;11.10;2.80;;;13.70;1.00;;;;;;5022957;28;20171;-86
2022/11/02 03:17:02;;;;;;;16.87;3.20;;;13.70;1.00;;;;;;5026061;28;20662;-87
2022/11/02 03:19:37;;;;;;;11.17;2.50;;;13.70;1.00;;;;;;5022435;28;20177;-89
2022/11/02 03:22:21;;;;;;;11.63;2.93;;;13.60;1.00;;;;;;5019815;28;20185;-87
2022/11/02 03:25:14;;;;;;;8.30;2.40;;;13.80;1.00;;;;;;5018460;28;20171;-88
2022/11/02 03:28:07;;;;;;;12.63;3.37;;;13.70;1.00;;;;;;5018755;28;20160;-84
2022/11/02 03:30:41;;;;;;;9.73;3.37;;;13.70;1.00;;;;;;5019112;28;20166;-87
2022/11/02 03:34:04;;;;;;;11.13;2.93;;;13.80;1.00;;;;;;5019408;28;20165;-85
2022/11/02 03:36:36;;;;;;;9.03;2.30;;;13.60;1.00;;;;;;4977308;28;20233;-84
2022/11/02 03:39:18;;;;;;;9.90;2.63;;;13.60;1.00;;;;;;5017509;28;20211;-87
2022/11/02 03:41:46;;;;;;;10.00;2.57;;;13.60;1.00;;;;;;5018599;28;20269;-83
2022/11/02 03:44:23;;;;;;;11.17;2.30;;;13.50;1.00;;;;;;5017236;28;20167;-84
2022/11/02 03:46:59;;;;;;;8.00;2.50;;;13.50;1.00;;;;;;5018223;28;20539;-89
2022/11/02 03:49:28;;;;;;;8.83;2.03;;;13.60;1.00;;;;;;5018881;28;20245;-87
2022/11/02 03:52:00;;;;;;;12.10;3.30;;;13.40;1.00;;;;;;5017278;28;20223;-85
2022/11/02 03:54:38;;;;;;;8.67;3.10;;;13.40;1.00;;;;;;5017445;28;20258;-86
2022/11/02 03:57:08;;;;;;;11.43;2.93;;;13.30;1.00;;;;;;5017845;28;20565;-88
2022/11/02 03:59:34;;;;;;;13.53;3.27;;;13.40;1.00;;;;;;5015637;28;20174;-82
2022/11/02 04:02:01;;;;;;;9.30;2.97;;;13.40;1.00;;;;;;5015337;28;20179;-88
2022/11/02 04:04:26;;;;;;;12.90;3.13;;;13.40;1.00;;;;;;5015710;28;20654;-88
2022/11/02 04:06:53;;;;;;;10.93;2.83;;;13.50;1.00;;;;;;5015990;28;20258;-87
2022/11/02 04:09:20;;;;;;;8.97;2.30;;;13.50;1.00;;;;;;5016063;28;20181;-87
2022/11/02 04:14:38;;;;;;;11.63;3.00;;;13.50;1.00;;;;;;5016827;28;20220;-88
2022/11/02 04:19:54;;;;;;;12.77;3.23;;;13.50;1.00;;;;;;5017274;28;20201;-83
2022/11/02 04:25:15;;;;;;;13.30;2.67;;;13.40;1.00;;;;;;5016807;28;20231;-88
2022/11/02 04:27:41;;;;;;;12.23;2.73;;;13.40;1.00;;;;;;5015145;28;20170;-88
2022/11/02 04:30:07;;;;;;;12.07;3.00;;;13.40;1.00;;;;;;5015611;28;20189;-85
2022/11/02 04:35:31;;;;;;;9.67;2.50;;;13.30;1.00;;;;;;5018091;28;20237;-86
2022/11/02 04:40:42;;;;;;;9.70;3.00;;;13.40;1.00;;;;;;5017654;28;20177;-88
2022/11/02 04:43:08;;;;;;;13.70;3.00;;;13.30;1.00;;;;;;5018647;28;20743;-86
2022/11/02 04:45:33;;;;;;;15.20;2.70;;;13.40;1.00;;;;;;5019817;28;20206;-88
2022/11/02 04:48:04;;;;;;;14.10;3.43;;;13.20;1.00;;;;;;5023270;28;20185;-88
2022/11/02 04:50:30;;;;;;;9.73;2.90;;;12.90;1.00;;;;;;5025476;28;20273;-87
2022/11/02 04:52:57;;;;;;;9.73;2.80;;;13.10;1.00;;;;;;5032564;28;20178;-84
2022/11/02 04:55:24;;;;;;;14.20;3.10;;;13.00;1.00;;;;;;5038453;28;20222;-85
2022/11/02 04:57:50;;;;;;;12.37;3.13;;;13.10;1.00;;;;;;5038260;28;20211;-81
2022/11/02 05:00:18;;;;;;;11.43;2.87;;;13.10;1.00;;;;;;5034938;28;20174;-83
2022/11/02 05:02:50;;;;;;;11.33;2.80;;;13.10;1.40;;;;;;5032300;28;20175;-82
2022/11/02 05:05:17;;;;;;;10.47;2.67;;;13.00;2.90;;;;;;5025304;28;20642;-84
2022/11/02 05:07:45;;;;;;;6.77;2.10;;;13.00;4.00;;;;;;5023170;28;20249;-83
2022/11/02 05:10:12;;;;;;;10.80;2.50;;;13.00;7.30;;;;;;5017150;28;20173;-83
2022/11/02 05:12:38;;;;;;;12.93;2.90;;;12.80;10.40;;;;;;5018438;28;20241;-83
2022/11/02 05:15:07;;;;;;;12.00;2.90;;;12.90;7.00;;;;;;5016212;28;20244;-82
2022/11/02 05:17:32;;;;;;;15.27;3.53;;;12.80;9.80;;;;;;5012990;28;20213;-83
2022/11/02 05:19:58;;;;;;;11.07;2.83;;;12.80;13.10;;;;;;5013060;28;20197;-83
2022/11/02 05:22:24;;;;;;;12.93;3.23;;;13.00;11.00;;;;;;5012919;28;20297;-83
2022/11/02 05:24:49;;;;;;;12.33;2.83;;;12.90;12.20;;;;;;5013521;28;20654;-82
2022/11/02 05:27:15;;;;;;;12.53;3.03;;;12.80;13.80;;;;;;5015046;28;20171;-84
2022/11/02 05:29:41;;;;;;;10.70;3.00;;;12.80;15.80;;;;;;5013246;28;20198;-82
2022/11/02 05:32:06;;;;;;;14.27;3.37;;;12.90;16.90;;;;;;5014230;28;20176;-82
2022/11/02 05:34:32;;;;;;;12.77;3.20;;;12.80;19.00;;;;;;5018053;28;20194;-86
2022/11/02 05:36:58;;;;;;;15.57;3.83;;;12.90;17.70;;;;;;5030564;28;20216;-82
2022/11/02 05:39:23;;;;;;;10.33;3.03;;;13.00;15.00;;;;;;5033807;28;20163;-87
2022/11/02 05:41:49;;;;;;;14.50;3.60;;;12.90;17.80;;;;;;5031941;28;20201;-84
2022/11/02 05:44:16;;;;;;;10.67;3.00;;;12.90;17.00;;;;;;5029589;28;20175;-87
2022/11/02 05:46:57;;;;;;;13.20;3.30;;;12.80;21.80;;;;;;5027345;28;20312;-82
2022/11/02 05:49:28;;;;;;;14.33;2.90;;;12.60;26.70;;;;;;5023075;28;20216;-84
2022/11/02 05:51:58;;;;;;;13.40;3.13;;;12.70;26.30;;;;;;5031467;28;20174;-84
2022/11/02 05:54:24;;;;;;;15.93;3.63;;;12.60;31.00;;;;;;5030218;28;20221;-82
2022/11/02 05:56:49;;;;;;;12.87;3.47;;;12.60;32.40;;;;;;5017883;28;20211;-87
2022/11/02 05:59:15;;;;;;;13.43;3.10;;;12.60;31.90;;;;;;5016803;28;20181;-85
2022/11/02 06:01:41;;;;;;;11.47;2.73;;;12.70;33.30;;;;;;5017319;28;20675;-84
2022/11/02 06:04:07;;;;;;;16.33;3.23;;;12.50;35.20;;;;;;5015807;28;20238;-85
2022/11/02 06:06:34;;;;;;;10.77;2.90;;;12.40;39.60;;;;;;5018279;28;20199;-86
2022/11/02 06:08:59;;;;;;;13.13;2.90;;;12.50;40.20;;;;;;5017175;28;20333;-88
2022/11/02 06:11:26;;;;;;;16.40;4.13;;;12.50;42.30;;;;;;5016110;28;20182;-88
2022/11/02 06:13:52;;;;;;;14.07;3.17;;;12.50;41.90;;;;;;5015285;28;20572;-88
2022/11/02 06:16:17;;;;;;;10.90;3.27;;;12.40;44.40;;;;;;5017954;28;20305;-89
2022/11/02 06:18:44;;;;;;;12.60;3.50;;;12.50;46.80;;;;;;5016507;28;20205;-84
2022/11/02 06:21:10;;;;;;;13.87;3.70;;;12.60;45.30;;;;;;5015689;28;20261;-86
2022/11/02 06:23:37;;;;;;;12.33;3.60;;;12.50;45.90;;;;;;5015698;28;20213;-87
2022/11/02 06:26:04;;;;;;;13.77;3.83;;;12.50;47.30;;;;;;5017309;28;20184;-87
2022/11/02 06:28:30;;;;;;;11.60;3.47;;;12.60;47.70;;;;;;5013763;28;20275;-86
2022/11/02 06:30:56;;;;;;;9.90;3.23;;;12.50;47.80;;;;;;5014076;28;20634;-82
2022/11/02 06:33:22;;;;;;;15.43;2.87;;;12.50;48.10;;;;;;5015494;28;20162;-87
2022/11/02 06:36:08;;;;;;;11.87;3.33;;;12.40;51.00;;;;;;5013285;28;20277;-83
2022/11/02 06:38:33;;;;;;;12.90;3.43;;;12.30;55.10;;;;;;5014278;28;20178;-83
2022/11/02 06:41:02;;;;;;;17.67;3.67;;;12.40;53.60;;;;;;5013414;28;20225;-89
2022/11/02 06:43:28;;;;;;;12.87;3.40;;;12.40;53.90;;;;;;5013542;28;20616;-83
2022/11/02 06:45:56;;;;;;;12.10;4.00;;;12.20;55.70;;;;;;5015491;28;20183;-81
2022/11/02 06:48:23;;;;;;;12.20;3.50;;;12.30;55.70;;;;;;5019594;28;20167;-84
2022/11/02 06:50:49;;;;;;;14.73;3.77;;;12.30;57.80;;;;;;5017726;28;20178;-83
2022/11/02 06:53:15;;;;;;;13.13;3.23;;;12.20;59.20;;;;;;5017047;28;20181;-86
2022/11/02 06:55:40;;;;;;;15.83;4.20;;;12.10;65.20;;;;;;5015460;28;20214;-86
2022/11/02 06:58:06;;;;;;;13.80;3.77;;;12.10;67.50;;;;;;5013938;28;20257;-88
2022/11/02 07:00:32;;;;;;;16.13;4.10;;;12.50;65.60;;;;;;5012765;28;20175;-85
2022/11/02 07:03:05;;;;;;;13.57;3.10;;;12.40;64.10;;;;;;5017168;28;20265;-89
2022/11/02 07:05:32;;;;;;;14.37;3.70;;;12.30;67.60;;;;;;5015923;28;20182;-83
2022/11/02 07:07:59;;;;;;;14.27;3.60;;;12.30;63.20;;;;;;5029786;28;20193;-84
2022/11/02 07:10:26;;;;;;;14.37;3.17;;;12.30;63.60;;;;;;5028109;28;20182;-86
2022/11/02 07:12:58;;;;;;;18.17;3.87;;;12.20;67.50;;;;;;5030360;28;20185;-89
2022/11/02 07:15:26;;;;;;;18.40;3.90;;;12.20;69.60;;;;;;5033388;28;20260;-86
2022/11/02 07:17:55;;;;;;;21.03;3.97;;;12.10;68.00;;;;;;4998498;28;20205;-83
2022/11/02 07:20:32;;;;;;;16.47;3.63;;;12.10;70.10;;;;;;5030026;28;20174;-88
2022/11/02 07:23:22;;;;;;;14.80;3.67;;;12.10;71.70;;;;;;5032969;28;20198;-89
2022/11/02 07:25:48;;;;;;;15.80;4.00;;;12.10;71.20;;;;;;5032772;28;20253;-88
2022/11/02 07:28:22;;;;;;;11.67;3.17;;;12.10;70.90;;;;;;5033612;28;20190;-88
2022/11/02 07:30:54;;;;;;;15.47;3.93;;;12.10;70.80;;;;;;5034723;28;20197;-86
2022/11/02 07:33:22;;;;;;;15.13;3.57;;;12.20;74.30;;;;;;5034833;28;20202;-83
2022/11/02 07:35:57;;;;;;;14.53;3.63;;;12.60;71.60;;;;;;5033293;28;20210;-85
2022/11/02 07:38:35;;;;;;;16.57;3.83;;;12.60;65.20;;;;;;5019403;28;20362;-86
2022/11/02 07:41:06;;;;;;;13.70;3.50;;;12.50;59.10;;;;;;5035641;28;20171;-85
2022/11/02 07:43:32;;;;;;;15.73;3.40;;;12.30;63.00;;;;;;5017922;28;20178;-82
2022/11/02 07:46:05;;;;;;;16.63;4.50;;;12.30;62.50;;;;;;5030180;28;20166;-84
2022/11/02 07:48:42;;;;;;;17.00;4.23;;;12.30;59.30;;;;;;5031003;28;20182;-82
2022/11/02 07:51:10;;;;;;;16.03;4.20;;;12.30;61.70;;;;;;5032391;28;20166;-83
2022/11/02 07:53:41;;;;;;;16.37;3.83;;;12.40;62.30;;;;;;5022110;28;20193;-83
2022/11/02 07:56:07;;;;;;;13.50;4.23;;;12.40;62.80;;;;;;5031339;28;20304;-81
2022/11/02 07:58:34;;;;;;;16.50;4.30;;;12.40;63.60;;;;;;5032241;28;20178;-82
2022/11/02 08:01:04;;;;;;;16.70;3.33;;;12.50;59.60;;;;;;5027938;28;20232;-83
2022/11/02 08:03:31;;;;;;;19.20;4.77;;;12.50;58.90;;;;;;5015077;28;20184;-83
2022/11/02 08:06:02;;;;;;;16.17;4.13;;;12.50;60.50;;;;;;5031733;28;20189;-81
2022/11/02 08:08:29;;;;;;;15.87;3.93;;;12.60;58.20;;;;;;5030545;28;20253;-82
2022/11/02 08:11:04;;;;;;;16.73;4.53;;;12.60;58.70;;;;;;5009004;28;20246;-81
2022/11/02 08:13:34;;;;;;;13.43;3.47;;;12.60;54.10;;;;;;5022233;28;20250;-82
2022/11/02 08:16:00;;;;;;;16.03;4.47;;;12.60;55.20;;;;;;5003208;28;20246;-82
2022/11/02 08:18:27;;;;;;;14.93;4.07;;;12.50;56.70;;;;;;5024214;28;20233;-83
2022/11/02 08:20:59;;;;;;;12.60;3.30;;;12.70;55.60;;;;;;5021608;28;20182;-83
2022/11/02 08:23:26;;;;;;;18.33;3.83;;;12.80;52.40;;;;;;5032537;28;20174;-83
2022/11/02 08:25:53;;;;;;;16.77;3.70;;;12.80;50.50;;;;;;5037009;28;20193;-83
2022/11/02 08:28:23;;;;;;;18.17;4.10;;;12.80;49.40;;;;;;5017433;28;20175;-83
2022/11/02 08:30:52;;;;;;;19.70;4.00;;;13.00;46.10;;;;;;5028569;28;20193;-81
2022/11/02 08:33:22;;;;;;;14.27;3.70;;;13.10;44.10;;;;;;5024202;28;20637;-81
2022/11/02 08:36:02;;;;;;;13.70;3.70;;;13.10;39.70;;;;;;5021934;28;20218;-80
2022/11/02 08:38:32;;;;;;;18.80;3.63;;;13.10;36.70;;;;;;5028093;28;20194;-83
2022/11/02 08:41:04;;;;;;;17.80;4.67;;;13.10;37.40;;;;;;5006030;28;20178;-83
2022/11/02 08:43:38;;;;;;;16.60;4.30;;;13.10;38.60;;;;;;5023335;28;20170;-82
2022/11/02 08:46:05;;;;;;;15.10;3.83;;;13.10;39.30;;;;;;5017560;28;20199;-82
2022/11/02 08:48:33;;;;;;;16.23;4.33;;;13.00;37.40;;;;;;5012093;28;20193;-81
2022/11/02 08:50:59;;;;;;;16.80;3.90;;;13.10;33.90;;;;;;5008599;28;20800;-81
2022/11/02 08:53:25;;;;;;;12.90;3.60;;;13.20;31.00;;;;;;5021156;28;20218;-82
2022/11/02 08:55:59;;;;;;;14.20;3.80;;;13.00;35.30;;;;;;5023276;28;20211;-81
2022/11/02 08:58:25;;;;;;;17.30;4.30;;;13.10;35.40;;;;;;5018260;28;20204;-83
2022/11/02 09:00:54;;;;;;;15.77;3.77;;;13.10;34.20;;;;;;5015944;28;20688;-85
2022/11/02 09:03:23;;;;;;;14.13;4.43;;;13.20;30.80;;;;;;5015882;28;20178;-84
2022/11/02 09:05:49;;;;;;;18.10;4.20;;;13.30;28.90;;;;;;5015086;28;20184;-84
2022/11/02 09:08:18;;;;;;;19.33;3.80;;;13.50;24.60;;;;;;5010215;28;20193;-83
2022/11/02 09:10:48;;;;;;;20.03;4.17;;;13.60;19.80;;;;;;5013795;28;20188;-84
2022/11/02 09:13:17;;;;;;;14.80;3.40;;;13.60;19.10;;;;;;5013358;28;20177;-83
2022/11/02 09:15:42;;;;;;;12.97;4.07;;;13.50;20.40;;;;;;5013019;28;20675;-83
2022/11/02 09:18:08;;;;;;;17.13;3.37;;;13.50;18.20;;;;;;5012342;28;20185;-83
2022/11/02 09:20:35;;;;;;;16.97;4.40;;;13.50;15.30;;;;;;5012535;28;20181;-86
2022/11/02 09:23:01;;;;;;;14.70;3.60;;;13.60;17.80;;;;;;5014398;28;20199;-89
2022/11/02 09:25:26;;;;;;;14.60;3.53;;;13.60;11.20;;;;;;5014040;28;20174;-89
2022/11/02 09:27:54;;;;;;;15.60;4.07;;;13.60;12.30;;;;;;5013452;28;20205;-87
2022/11/02 09:30:21;;;;;;;15.60;4.03;;;13.70;11.80;;;;;;5014605;28;20173;-89
2022/11/02 09:32:57;;;;;;;16.13;3.90;;;14.00;9.40;;;;;;5014454;28;20298;-85
2022/11/02 09:35:24;;;;;;;17.13;3.23;;;14.00;6.80;;;;;;5012642;28;20215;-83
2022/11/02 09:37:50;;;;;;;17.57;3.63;;;14.10;1.00;;;;;;5016702;28;20192;-89
2022/11/02 09:40:21;;;;;;;22.43;5.10;;;14.20;1.00;;;;;;5023285;28;20255;-86
2022/11/02 09:43:13;;;;;;;14.27;3.87;;;14.10;1.00;;;;;;5019314;28;20279;-84
2022/11/02 09:45:52;;;;;;;16.87;3.70;;;14.20;2.60;;;;;;5008223;28;20191;-80
2022/11/02 09:48:27;;;;;;;14.67;3.57;;;14.40;1.00;;;;;;5010046;28;20231;-82
2022/11/02 09:51:16;;;;;;;19.10;4.47;;;14.30;1.00;;;;;;5014091;28;20306;-81
2022/11/02 09:53:54;;;;;;;18.00;3.80;;;14.50;1.00;;;;;;5010880;28;20223;-85
2022/11/02 09:56:20;;;;;;;13.33;3.93;;;14.60;1.00;;;;;;5011296;28;20216;-88
2022/11/02 09:59:21;;;;;;;13.50;3.30;;;14.60;1.00;;;;;;5014209;28;20589;-83
2022/11/02 10:02:28;;;;;;;15.13;4.00;;;14.80;1.00;;;;;;5013062;28;20260;-85
2022/11/02 10:05:49;;;;;;;14.30;3.20;;;14.80;1.00;;;;;;5017352;28;20174;-86
2022/11/02 10:08:46;;;;;;;15.37;3.40;;;14.80;1.00;;;;;;5014877;28;20185;-86
2022/11/02 10:11:15;;;;;;;11.30;3.37;;;14.70;1.00;;;;;;5019894;28;20177;-87
2022/11/02 10:13:53;;;;;;;15.27;4.03;;;14.60;1.00;;;;;;5023169;28;20245;-84
2022/11/02 10:16:24;;;;;;;13.97;3.73;;;14.60;1.00;;;;;;5033019;28;20213;-85
2022/11/02 10:18:53;;;;;;;14.23;3.40;;;14.50;1.00;;;;;;5015195;28;20221;-87
2022/11/02 10:21:22;;;;;;;15.50;4.10;;;14.70;1.00;;;;;;5011845;28;20170;-85
2022/11/02 10:23:55;;;;;;;16.33;3.93;;;14.70;1.00;;;;;;5011232;28;20708;-88
2022/11/02 10:26:28;;;;;;;12.10;3.43;;;14.60;1.00;;;;;;5012771;28;20189;-87
2022/11/02 10:29:00;;;;;;;12.63;3.50;;;14.70;1.00;;;;;;5014173;28;20201;-87
2022/11/02 10:31:29;;;;;;;15.97;4.07;;;14.60;1.00;;;;;;5017933;28;20171;-85
2022/11/02 10:33:58;;;;;;;14.87;3.90;;;14.80;1.00;;;;;;5023677;28;20164;-88
2022/11/02 10:36:40;;;;;;;22.13;3.70;;;14.70;1.00;;;;;;5023727;28;20224;-84
2022/11/02 10:39:31;;;;;;;14.70;4.17;;;14.80;1.00;;;;;;5024011;28;20181;-83
2022/11/02 10:42:16;;;;;;;15.37;3.60;;;14.70;1.00;;;;;;5015553;28;20681;-83
2022/11/02 10:45:06;;;;;;;16.37;3.37;;;14.80;1.00;;;;;;5018006;28;20224;-81
2022/11/02 10:48:06;;;;;;;13.77;3.63;;;14.90;1.00;;;;;;5019474;28;20277;-87
2022/11/02 10:51:18;;;;;;;15.63;4.27;;;15.10;1.00;;;;;;5019563;28;20177;-88
2022/11/02 10:53:46;;;;;;;15.70;3.70;;;15.10;1.00;;;;;;4988645;28;20186;-87
2022/11/02 10:56:17;;;;;;;14.93;3.50;;;15.10;1.00;;;;;;5018034;28;20309;-87
2022/11/02 10:58:49;;;;;;;16.87;4.40;;;15.30;1.00;;;;;;5014271;28;20185;-85
2022/11/02 11:01:16;;;;;;;15.33;4.50;;;15.40;1.00;;;;;;5016946;28;20170;-86
2022/11/02 11:03:57;;;;;;;17.73;4.23;;;15.60;1.00;;;;;;5017380;28;20181;-85
2022/11/02 11:06:36;;;;;;;18.13;4.33;;;15.80;1.00;;;;;;5015815;28;20170;-83
2022/11/02 11:09:14;;;;;;;16.03;4.43;;;15.60;1.00;;;;;;5015324;28;20166;-83
2022/11/02 11:11:41;;;;;;;15.23;3.40;;;15.50;1.00;;;;;;5014585;28;20170;-83
2022/11/02 11:14:14;;;;;;;16.53;2.93;;;15.50;1.00;;;;;;5015233;28;20304;-83
2022/11/02 11:16:50;;;;;;;13.93;3.17;;;15.60;1.00;;;;;;5014953;28;20202;-83
2022/11/02 11:19:22;;;;;;;13.33;3.10;;;15.70;1.00;;;;;;5016964;28;20165;-85
2022/11/02 11:21:49;;;;;;;14.53;3.30;;;15.70;1.00;;;;;;5015802;28;20388;-86
2022/11/02 11:24:29;;;;;;;15.47;3.67;;;15.90;1.00;;;;;;5017597;28;20281;-85
2022/11/02 11:27:11;;;;;;;12.17;3.20;;;15.90;1.00;;;;;;5016048;28;20232;-88
2022/11/02 11:29:47;;;;;;;18.87;4.30;;;15.90;1.00;;;;;;5014777;28;20178;-82
2022/11/02 11:32:23;;;;;;;10.70;3.87;;;16.10;1.00;;;;;;5015409;28;20170;-81
2022/11/02 11:34:54;;;;;;;13.50;3.07;;;16.10;1.00;;;;;;5014748;28;20225;-84
2022/11/02 11:37:21;;;;;;;12.20;2.97;;;16.00;1.00;;;;;;5015294;28;20773;-81
2022/11/02 11:39:51;;;;;;;15.53;3.53;;;16.00;1.00;;;;;;5016679;28;20250;-83
2022/11/02 11:42:20;;;;;;;11.80;3.43;;;16.00;1.00;;;;;;5016358;28;20367;-83
2022/11/02 11:44:54;;;;;;;13.40;3.10;;;16.10;1.00;;;;;;5014968;28;20162;-83
2022/11/02 11:47:25;;;;;;;13.73;3.63;;;16.10;1.00;;;;;;5016447;28;20547;-81
2022/11/02 11:49:52;;;;;;;16.07;3.23;;;16.10;1.00;;;;;;5013873;28;20216;-82
2022/11/02 11:52:23;;;;;;;11.60;3.30;;;16.20;1.00;;;;;;5015964;28;20218;-87
2022/11/02 11:55:23;;;;;;;15.63;3.33;;;16.30;1.00;;;;;;5032836;28;20177;-85
2022/11/02 11:58:15;;;;;;;15.40;4.00;;;16.40;1.00;;;;;;5037577;28;20213;-83
2022/11/02 12:01:24;;;;;;;11.53;2.67;;;16.40;1.00;;;;;;5034536;28;20164;-84
2022/11/02 12:04:00;;;;;;;14.33;3.80;;;16.60;1.00;;;;;;5021868;28;20186;-82
2022/11/02 12:06:55;;;;;;;13.17;3.87;;;16.70;1.00;;;;;;5024754;28;20177;-84
2022/11/02 12:10:03;;;;;;;11.43;3.43;;;16.50;1.00;;;;;;5025716;28;20217;-82
2022/11/02 12:12:57;;;;;;;9.73;3.30;;;16.50;1.00;;;;;;4954671;29;20701;-82
2022/11/02 12:15:46;;;;;;;10.63;3.00;;;16.50;1.00;;;;;;4966862;29;20220;-83
2022/11/02 12:18:40;;;;;;;12.37;2.73;;;16.50;1.00;;;;;;5016787;28;20190;-83
2022/11/02 12:21:34;;;;;;;12.10;3.40;;;16.40;1.00;;;;;;5022628;28;20205;-81
2022/11/02 12:24:22;;;;;;;16.77;3.40;;;16.40;1.00;;;;;;5024500;28;20174;-83
2022/11/02 12:27:09;;;;;;;12.43;3.60;;;16.40;1.00;;;;;;5022679;28;20209;-83
2022/11/02 12:29:57;;;;;;;14.17;3.03;;;16.50;1.00;;;;;;5023160;28;20159;-82
2022/11/02 12:32:23;;;;;;;11.90;3.23;;;16.60;1.00;;;;;;5019193;28;20174;-81
2022/11/02 12:34:57;;;;;;;15.30;3.30;;;16.60;1.00;;;;;;5020624;28;20646;-84
2022/11/02 12:37:49;;;;;;;10.17;2.83;;;16.60;1.00;;;;;;5022977;28;20296;-81
2022/11/02 12:40:54;;;;;;;16.60;2.97;;;16.70;1.00;;;;;;5022146;28;20171;-81
2022/11/02 12:43:41;;;;;;;12.50;2.60;;;16.60;1.00;;;;;;4994273;28;20543;-82
2022/11/02 12:46:42;;;;;;;9.63;2.53;;;16.50;1.00;;;;;;5018496;28;20209;-82
2022/11/02 12:49:32;;;;;;;14.33;3.30;;;16.60;1.00;;;;;;5012148;28;20710;-81
2022/11/02 12:52:28;;;;;;;12.80;3.37;;;16.60;1.00;;;;;;5017490;28;20170;-81
2022/11/02 12:55:00;;;;;;;13.07;3.03;;;16.50;1.00;;;;;;5017225;28;20179;-82
2022/11/02 12:57:30;;;;;;;7.57;2.20;;;16.50;1.00;;;;;;5009904;28;20229;-82
2022/11/02 13:00:14;;;;;;;12.97;2.83;;;16.60;1.00;;;;;;5015218;28;20620;-82
2022/11/02 13:02:58;;;;;;;10.00;1.97;;;16.60;1.00;;;;;;5017106;28;20163;-84
2022/11/02 13:05:47;;;;;;;12.30;2.93;;;16.60;99.90;;;;;;5016212;28;20277;-82
2022/11/02 13:08:31;;;;;;;10.47;2.80;;;16.40;99.90;;;;;;5019266;28;20171;-80
2022/11/02 13:11:02;;;;;;;11.93;3.83;;;16.50;1.00;;;;;;5004468;28;20189;-84
2022/11/02 13:13:39;;;;;;;8.97;2.83;;;16.40;1.00;;;;;;5028694;28;20173;-84
2022/11/02 13:16:13;;;;;;;10.10;2.80;;;16.50;1.00;;;;;;5023877;28;20205;-82
2022/11/02 13:18:49;;;;;;;12.27;2.80;;;16.70;1.00;;;;;;5033120;28;20163;-84
2022/11/02 13:21:44;;;;;;;8.50;2.43;;;16.80;1.00;;;;;;5031186;28;20203;-83
2022/11/02 13:24:30;;;;;;;15.40;2.70;;;16.70;1.00;;;;;;5024922;28;20167;-86
2022/11/02 13:27:01;;;;;;;11.93;3.27;;;16.70;1.00;;;;;;5024038;28;20215;-85
2022/11/02 13:29:51;;;;;;;11.70;3.10;;;16.60;1.00;;;;;;5032862;28;20179;-83
2022/11/02 13:32:39;;;;;;;10.77;3.00;;;16.40;1.00;;;;;;5017614;28;20183;-86
2022/11/02 13:35:24;;;;;;;11.00;2.43;;;16.40;1.00;;;;;;5024186;28;20190;-82